sensor_id;sensor_type;location;lat;lon;timestamp;pressure;altitude;pressure_sealevel;temperature;humidity
8653;BME280;4364;52.426;9.424;2023-03-13T00:01:25;99898.16;;;7.93;94.21
8653;BME280;4364;52.426;9.424;2023-03-13T00:03:53;99889.72;;;8.00;94.24
8653;BME280;4364;52.426;9.424;2023-03-13T00:06:26;99890.31;;;7.91;94.26
8653;BME280;4364;52.426;9.424;2023-03-13T00:08:54;99883.81;;;7.92;94.06
8653;BME280;4364;52.426;9.424;2023-03-13T00:11:21;99881.34;;;8.01;92.83
8653;BME280;4364;52.426;9.424;2023-03-13T00:13:47;99881.63;;;8.00;92.88
8653;BME280;4364;52.426;9.424;2023-03-13T00:16:15;99877.50;;;8.07;92.17
8653;BME280;4364;52.426;9.424;2023-03-13T00:18:46;99878.28;;;8.13;91.88
8653;BME280;4364;52.426;9.424;2023-03-13T00:21:16;99874.28;;;8.05;91.66
8653;BME280;4364;52.426;9.424;2023-03-13T00:23:44;99873.53;;;7.94;92.69
8653;BME280;4364;52.426;9.424;2023-03-13T00:26:13;99865.66;;;7.98;92.55
8653;BME280;4364;52.426;9.424;2023-03-13T00:28:41;99864.63;;;7.89;92.45
8653;BME280;4364;52.426;9.424;2023-03-13T00:33:51;99864.25;;;8.06;92.16
8653;BME280;4364;52.426;9.424;2023-03-13T00:36:20;99855.38;;;7.95;92.65
8653;BME280;4364;52.426;9.424;2023-03-13T00:38:47;99855.56;;;8.09;92.10
8653;BME280;4364;52.426;9.424;2023-03-13T00:41:16;99856.25;;;8.25;89.96
8653;BME280;4364;52.426;9.424;2023-03-13T00:43:44;99855.75;;;8.23;90.05
8653;BME280;4364;52.426;9.424;2023-03-13T00:46:12;99847.25;;;8.34;88.71
8653;BME280;4364;52.426;9.424;2023-03-13T00:48:39;99849.69;;;8.36;88.52
8653;BME280;4364;52.426;9.424;2023-03-13T00:51:07;99845.84;;;8.42;88.60
8653;BME280;4364;52.426;9.424;2023-03-13T00:53:35;99822.88;;;8.34;88.26
8653;BME280;4364;52.426;9.424;2023-03-13T00:56:04;99833.16;;;8.38;88.35
8653;BME280;4364;52.426;9.424;2023-03-13T00:58:34;99824.75;;;8.39;88.08
8653;BME280;4364;52.426;9.424;2023-03-13T01:03:45;99824.91;;;8.19;89.85
8653;BME280;4364;52.426;9.424;2023-03-13T01:06:15;99820.84;;;8.16;89.71
8653;BME280;4364;52.426;9.424;2023-03-13T01:08:41;99816.03;;;8.08;90.02
8653;BME280;4364;52.426;9.424;2023-03-13T01:11:14;99813.38;;;8.03;90.28
8653;BME280;4364;52.426;9.424;2023-03-13T01:13:41;99809.00;;;8.07;90.23
8653;BME280;4364;52.426;9.424;2023-03-13T01:16:12;99803.66;;;7.96;90.59
8653;BME280;4364;52.426;9.424;2023-03-13T01:18:42;99791.63;;;8.13;90.01
8653;BME280;4364;52.426;9.424;2023-03-13T01:21:10;99795.75;;;8.05;90.42
8653;BME280;4364;52.426;9.424;2023-03-13T01:23:37;99796.56;;;8.06;90.23
8653;BME280;4364;52.426;9.424;2023-03-13T01:26:05;99799.56;;;8.04;91.13
8653;BME280;4364;52.426;9.424;2023-03-13T01:28:33;99782.22;;;8.05;90.80
8653;BME280;4364;52.426;9.424;2023-03-13T01:31:00;99774.16;;;7.95;92.31
8653;BME280;4364;52.426;9.424;2023-03-13T01:33:28;99770.06;;;8.03;91.53
8653;BME280;4364;52.426;9.424;2023-03-13T01:36:02;99777.97;;;7.94;92.47
8653;BME280;4364;52.426;9.424;2023-03-13T01:38:30;99764.78;;;7.82;94.03
8653;BME280;4364;52.426;9.424;2023-03-13T01:40:56;99759.97;;;7.74;95.08
8653;BME280;4364;52.426;9.424;2023-03-13T01:43:26;99757.78;;;7.76;95.58
8653;BME280;4364;52.426;9.424;2023-03-13T01:46:15;99750.22;;;7.73;95.23
8653;BME280;4364;52.426;9.424;2023-03-13T01:52:07;99741.31;;;7.72;96.72
8653;BME280;4364;52.426;9.424;2023-03-13T01:55:08;99714.97;;;7.83;96.68
8653;BME280;4364;52.426;9.424;2023-03-13T01:57:42;99717.72;;;7.78;97.08
8653;BME280;4364;52.426;9.424;2023-03-13T02:00:13;99707.16;;;7.76;98.43
8653;BME280;4364;52.426;9.424;2023-03-13T02:02:47;99700.50;;;7.64;98.67
8653;BME280;4364;52.426;9.424;2023-03-13T02:05:19;99691.53;;;7.68;98.80
8653;BME280;4364;52.426;9.424;2023-03-13T02:08:53;99676.44;;;7.62;99.40
8653;BME280;4364;52.426;9.424;2023-03-13T02:11:12;99674.78;;;7.66;99.12
8653;BME280;4364;52.426;9.424;2023-03-13T02:13:42;99668.84;;;7.64;99.79
8653;BME280;4364;52.426;9.424;2023-03-13T02:16:09;99663.16;;;7.66;99.04
8653;BME280;4364;52.426;9.424;2023-03-13T02:18:36;99659.38;;;7.61;98.98
8653;BME280;4364;52.426;9.424;2023-03-13T02:21:13;99654.53;;;7.64;99.33
8653;BME280;4364;52.426;9.424;2023-03-13T02:23:52;99646.03;;;7.75;99.26
8653;BME280;4364;52.426;9.424;2023-03-13T02:26:20;99645.28;;;7.65;99.60
8653;BME280;4364;52.426;9.424;2023-03-13T02:28:47;99641.19;;;7.72;99.22
8653;BME280;4364;52.426;9.424;2023-03-13T02:31:15;99628.16;;;7.74;99.06
8653;BME280;4364;52.426;9.424;2023-03-13T02:33:42;99624.16;;;7.72;99.18
8653;BME280;4364;52.426;9.424;2023-03-13T02:36:13;99625.97;;;7.76;99.71
8653;BME280;4364;52.426;9.424;2023-03-13T02:38:48;99613.59;;;7.70;99.97
8653;BME280;4364;52.426;9.424;2023-03-13T02:41:17;99602.50;;;7.72;99.20
8653;BME280;4364;52.426;9.424;2023-03-13T02:43:45;99597.09;;;7.72;99.48
8653;BME280;4364;52.426;9.424;2023-03-13T02:46:17;99583.06;;;7.65;100.00
8653;BME280;4364;52.426;9.424;2023-03-13T02:48:49;99577.31;;;7.71;98.95
8653;BME280;4364;52.426;9.424;2023-03-13T02:53:49;99564.13;;;7.65;99.33
8653;BME280;4364;52.426;9.424;2023-03-13T02:56:19;99559.38;;;7.51;100.00
8653;BME280;4364;52.426;9.424;2023-03-13T02:58:47;99540.94;;;7.58;100.00
8653;BME280;4364;52.426;9.424;2023-03-13T03:01:19;99536.66;;;7.52;100.00
8653;BME280;4364;52.426;9.424;2023-03-13T03:03:46;99531.34;;;7.42;100.00
8653;BME280;4364;52.426;9.424;2023-03-13T03:06:12;99525.31;;;7.50;100.00
8653;BME280;4364;52.426;9.424;2023-03-13T03:08:39;99516.38;;;7.50;100.00
8653;BME280;4364;52.426;9.424;2023-03-13T03:11:08;99518.22;;;7.54;100.00
8653;BME280;4364;52.426;9.424;2023-03-13T03:13:35;99509.94;;;7.46;100.00
8653;BME280;4364;52.426;9.424;2023-03-13T03:16:07;99492.06;;;7.45;100.00
8653;BME280;4364;52.426;9.424;2023-03-13T03:18:36;99498.50;;;7.54;100.00
8653;BME280;4364;52.426;9.424;2023-03-13T03:21:04;99492.25;;;7.53;100.00
8653;BME280;4364;52.426;9.424;2023-03-13T03:23:35;99486.09;;;7.48;100.00
8653;BME280;4364;52.426;9.424;2023-03-13T03:26:03;99479.94;;;7.42;100.00
8653;BME280;4364;52.426;9.424;2023-03-13T03:28:31;99458.81;;;7.44;100.00
8653;BME280;4364;52.426;9.424;2023-03-13T03:31:06;99464.28;;;7.39;100.00
8653;BME280;4364;52.426;9.424;2023-03-13T03:33:35;99443.50;;;7.34;100.00
8653;BME280;4364;52.426;9.424;2023-03-13T03:36:07;99441.81;;;7.44;100.00
8653;BME280;4364;52.426;9.424;2023-03-13T03:38:35;99440.41;;;7.46;100.00
8653;BME280;4364;52.426;9.424;2023-03-13T03:41:02;99435.44;;;7.53;100.00
8653;BME280;4364;52.426;9.424;2023-03-13T03:43:29;99436.50;;;7.57;100.00
8653;BME280;4364;52.426;9.424;2023-03-13T03:45:57;99427.16;;;7.45;100.00
8653;BME280;4364;52.426;9.424;2023-03-13T03:48:24;99429.34;;;7.42;100.00
8653;BME280;4364;52.426;9.424;2023-03-13T03:50:51;99434.59;;;7.58;100.00
8653;BME280;4364;52.426;9.424;2023-03-13T03:53:18;99421.34;;;7.56;100.00
8653;BME280;4364;52.426;9.424;2023-03-13T03:55:45;99420.00;;;7.59;100.00
8653;BME280;4364;52.426;9.424;2023-03-13T03:58:11;99418.41;;;7.53;100.00
8653;BME280;4364;52.426;9.424;2023-03-13T04:01:01;99418.88;;;7.60;100.00
8653;BME280;4364;52.426;9.424;2023-03-13T04:03:28;99418.84;;;7.65;100.00
8653;BME280;4364;52.426;9.424;2023-03-13T04:05:56;99417.06;;;7.55;100.00
8653;BME280;4364;52.426;9.424;2023-03-13T04:08:23;99405.06;;;7.61;100.00
8653;BME280;4364;52.426;9.424;2023-03-13T04:10:50;99393.78;;;7.54;100.00
8653;BME280;4364;52.426;9.424;2023-03-13T04:13:20;99388.44;;;7.49;100.00
8653;BME280;4364;52.426;9.424;2023-03-13T04:15:47;99383.88;;;7.45;100.00
8653;BME280;4364;52.426;9.424;2023-03-13T04:18:15;99376.88;;;7.44;100.00
8653;BME280;4364;52.426;9.424;2023-03-13T04:20:43;99373.06;;;7.45;100.00
8653;BME280;4364;52.426;9.424;2023-03-13T04:23:10;99367.88;;;7.48;100.00
8653;BME280;4364;52.426;9.424;2023-03-13T04:25:36;99369.84;;;7.42;100.00
8653;BME280;4364;52.426;9.424;2023-03-13T04:28:07;99363.72;;;7.37;100.00
8653;BME280;4364;52.426;9.424;2023-03-13T04:30:39;99356.69;;;7.36;100.00
8653;BME280;4364;52.426;9.424;2023-03-13T04:33:24;99352.63;;;7.33;100.00
8653;BME280;4364;52.426;9.424;2023-03-13T04:36:03;99351.28;;;7.36;100.00
8653;BME280;4364;52.426;9.424;2023-03-13T04:38:56;99332.97;;;7.28;100.00
8653;BME280;4364;52.426;9.424;2023-03-13T04:41:53;99337.97;;;7.39;100.00
8653;BME280;4364;52.426;9.424;2023-03-13T04:44:34;99336.38;;;7.38;100.00
8653;BME280;4364;52.426;9.424;2023-03-13T04:47:21;99316.97;;;7.31;100.00
8653;BME280;4364;52.426;9.424;2023-03-13T04:50:14;99330.72;;;7.35;100.00
8653;BME280;4364;52.426;9.424;2023-03-13T04:52:49;99317.59;;;7.23;100.00
8653;BME280;4364;52.426;9.424;2023-03-13T04:55:28;99311.78;;;7.35;100.00
8653;BME280;4364;52.426;9.424;2023-03-13T04:58:04;99306.91;;;7.37;100.00
8653;BME280;4364;52.426;9.424;2023-03-13T05:00:52;99294.53;;;7.31;100.00
8653;BME280;4364;52.426;9.424;2023-03-13T05:03:48;99286.72;;;7.29;100.00
8653;BME280;4364;52.426;9.424;2023-03-13T05:06:24;99294.09;;;7.23;100.00
8653;BME280;4364;52.426;9.424;2023-03-13T05:09:03;99287.22;;;7.31;100.00
8653;BME280;4364;52.426;9.424;2023-03-13T05:11:48;99282.94;;;7.30;100.00
8653;BME280;4364;52.426;9.424;2023-03-13T05:14:36;99278.53;;;7.34;100.00
8653;BME280;4364;52.426;9.424;2023-03-13T05:17:21;99274.00;;;7.30;100.00
8653;BME280;4364;52.426;9.424;2023-03-13T05:20:07;99270.94;;;7.36;100.00
8653;BME280;4364;52.426;9.424;2023-03-13T05:22:46;99275.25;;;7.37;100.00
8653;BME280;4364;52.426;9.424;2023-03-13T05:25:29;99265.47;;;7.41;100.00
8653;BME280;4364;52.426;9.424;2023-03-13T05:28:08;99255.09;;;7.49;100.00
8653;BME280;4364;52.426;9.424;2023-03-13T05:30:47;99246.41;;;7.52;100.00
8653;BME280;4364;52.426;9.424;2023-03-13T05:33:30;99242.44;;;7.44;100.00
8653;BME280;4364;52.426;9.424;2023-03-13T05:36:25;99243.03;;;7.41;100.00
8653;BME280;4364;52.426;9.424;2023-03-13T05:38:54;99234.69;;;7.37;100.00
8653;BME280;4364;52.426;9.424;2023-03-13T05:41:32;99242.44;;;7.44;100.00
8653;BME280;4364;52.426;9.424;2023-03-13T05:44:14;99233.00;;;7.41;100.00
8653;BME280;4364;52.426;9.424;2023-03-13T05:46:59;99232.91;;;7.52;100.00
8653;BME280;4364;52.426;9.424;2023-03-13T05:49:40;99220.81;;;7.44;100.00
8653;BME280;4364;52.426;9.424;2023-03-13T05:52:17;99234.91;;;7.41;100.00
8653;BME280;4364;52.426;9.424;2023-03-13T05:55:07;99229.56;;;7.55;100.00
8653;BME280;4364;52.426;9.424;2023-03-13T05:57:54;99223.75;;;7.48;100.00
8653;BME280;4364;52.426;9.424;2023-03-13T06:00:31;99226.78;;;7.60;100.00
8653;BME280;4364;52.426;9.424;2023-03-13T06:03:24;99216.72;;;7.66;100.00
8653;BME280;4364;52.426;9.424;2023-03-13T06:05:57;99221.38;;;7.60;100.00
8653;BME280;4364;52.426;9.424;2023-03-13T06:08:46;99220.16;;;7.52;100.00
8653;BME280;4364;52.426;9.424;2023-03-13T06:11:13;99213.41;;;7.50;100.00
8653;BME280;4364;52.426;9.424;2023-03-13T06:13:40;99200.72;;;7.50;100.00
8653;BME280;4364;52.426;9.424;2023-03-13T06:16:29;99213.88;;;7.57;100.00
8653;BME280;4364;52.426;9.424;2023-03-13T06:19:10;99196.25;;;7.59;100.00
8653;BME280;4364;52.426;9.424;2023-03-13T06:21:37;99186.59;;;7.53;100.00
8653;BME280;4364;52.426;9.424;2023-03-13T06:24:04;99191.19;;;7.53;100.00
8653;BME280;4364;52.426;9.424;2023-03-13T06:26:31;99186.75;;;7.62;100.00
8653;BME280;4364;52.426;9.424;2023-03-13T06:28:57;99185.94;;;7.61;100.00
8653;BME280;4364;52.426;9.424;2023-03-13T06:31:24;99181.91;;;7.59;100.00
8653;BME280;4364;52.426;9.424;2023-03-13T06:33:54;99179.81;;;7.56;100.00
8653;BME280;4364;52.426;9.424;2023-03-13T06:36:22;99186.59;;;7.72;100.00
8653;BME280;4364;52.426;9.424;2023-03-13T06:38:50;99176.09;;;8.18;100.00
8653;BME280;4364;52.426;9.424;2023-03-13T06:41:17;99166.72;;;8.43;100.00
8653;BME280;4364;52.426;9.424;2023-03-13T06:43:43;99163.81;;;8.67;100.00
8653;BME280;4364;52.426;9.424;2023-03-13T06:46:16;99160.69;;;8.74;100.00
8653;BME280;4364;52.426;9.424;2023-03-13T06:48:42;99154.56;;;8.96;100.00
8653;BME280;4364;52.426;9.424;2023-03-13T06:51:11;99164.56;;;9.23;100.00
8653;BME280;4364;52.426;9.424;2023-03-13T06:53:38;99154.13;;;9.16;100.00
8653;BME280;4364;52.426;9.424;2023-03-13T06:56:05;99148.47;;;9.26;100.00
8653;BME280;4364;52.426;9.424;2023-03-13T06:58:32;99149.16;;;9.32;100.00
8653;BME280;4364;52.426;9.424;2023-03-13T07:01:05;99144.47;;;9.46;100.00
8653;BME280;4364;52.426;9.424;2023-03-13T07:03:32;99171.56;;;9.60;100.00
8653;BME280;4364;52.426;9.424;2023-03-13T07:05:59;99145.16;;;9.75;100.00
8653;BME280;4364;52.426;9.424;2023-03-13T07:08:26;99146.97;;;9.79;100.00
8653;BME280;4364;52.426;9.424;2023-03-13T07:10:56;99148.00;;;9.92;100.00
8653;BME280;4364;52.426;9.424;2023-03-13T07:13:23;99156.56;;;10.08;100.00
8653;BME280;4364;52.426;9.424;2023-03-13T07:15:49;99159.63;;;10.15;100.00
8653;BME280;4364;52.426;9.424;2023-03-13T07:18:16;99141.59;;;10.19;100.00
8653;BME280;4364;52.426;9.424;2023-03-13T07:20:43;99144.50;;;10.23;100.00
8653;BME280;4364;52.426;9.424;2023-03-13T07:23:09;99140.03;;;10.27;100.00
8653;BME280;4364;52.426;9.424;2023-03-13T07:25:36;99144.84;;;10.30;100.00
8653;BME280;4364;52.426;9.424;2023-03-13T07:28:02;99148.91;;;10.42;100.00
8653;BME280;4364;52.426;9.424;2023-03-13T07:30:29;99162.53;;;10.50;100.00
8653;BME280;4364;52.426;9.424;2023-03-13T07:32:57;99165.09;;;10.47;100.00
8653;BME280;4364;52.426;9.424;2023-03-13T07:35:23;99156.63;;;10.48;100.00
8653;BME280;4364;52.426;9.424;2023-03-13T07:37:51;99154.91;;;10.52;100.00
8653;BME280;4364;52.426;9.424;2023-03-13T07:40:17;99161.25;;;10.48;100.00
8653;BME280;4364;52.426;9.424;2023-03-13T07:42:43;99164.31;;;10.55;100.00
8653;BME280;4364;52.426;9.424;2023-03-13T07:45:10;99161.78;;;10.59;100.00
8653;BME280;4364;52.426;9.424;2023-03-13T07:47:37;99164.97;;;10.61;100.00
8653;BME280;4364;52.426;9.424;2023-03-13T07:50:04;99172.50;;;10.64;100.00
8653;BME280;4364;52.426;9.424;2023-03-13T07:52:31;99176.69;;;10.70;100.00
8653;BME280;4364;52.426;9.424;2023-03-13T07:54:57;99175.03;;;10.60;100.00
8653;BME280;4364;52.426;9.424;2023-03-13T07:57:24;99162.31;;;10.69;100.00
8653;BME280;4364;52.426;9.424;2023-03-13T07:59:51;99172.22;;;10.74;100.00
8653;BME280;4364;52.426;9.424;2023-03-13T08:02:17;99174.75;;;10.70;100.00
8653;BME280;4364;52.426;9.424;2023-03-13T08:04:44;99172.34;;;10.69;100.00
8653;BME280;4364;52.426;9.424;2023-03-13T08:07:11;99175.13;;;10.78;100.00
8653;BME280;4364;52.426;9.424;2023-03-13T08:09:37;99161.03;;;10.75;100.00
8653;BME280;4364;52.426;9.424;2023-03-13T08:12:04;99170.97;;;10.80;100.00
8653;BME280;4364;52.426;9.424;2023-03-13T08:14:31;99159.94;;;10.85;100.00
8653;BME280;4364;52.426;9.424;2023-03-13T08:16:58;99160.72;;;10.86;100.00
8653;BME280;4364;52.426;9.424;2023-03-13T08:19:24;99160.25;;;10.84;100.00
8653;BME280;4364;52.426;9.424;2023-03-13T08:21:51;99160.41;;;10.87;100.00
8653;BME280;4364;52.426;9.424;2023-03-13T08:24:18;99159.31;;;10.97;100.00
8653;BME280;4364;52.426;9.424;2023-03-13T08:26:44;99141.44;;;11.05;100.00
8653;BME280;4364;52.426;9.424;2023-03-13T08:29:13;99144.16;;;11.05;100.00
8653;BME280;4364;52.426;9.424;2023-03-13T08:31:47;99142.69;;;11.07;100.00
8653;BME280;4364;52.426;9.424;2023-03-13T08:34:16;99142.53;;;11.12;100.00
8653;BME280;4364;52.426;9.424;2023-03-13T08:36:43;99159.22;;;11.20;100.00
8653;BME280;4364;52.426;9.424;2023-03-13T08:39:15;99156.31;;;11.25;100.00
8653;BME280;4364;52.426;9.424;2023-03-13T08:41:41;99159.53;;;11.36;100.00
8653;BME280;4364;52.426;9.424;2023-03-13T08:44:13;99141.94;;;11.33;100.00
8653;BME280;4364;52.426;9.424;2023-03-13T08:46:41;99148.31;;;11.37;100.00
8653;BME280;4364;52.426;9.424;2023-03-13T08:49:09;99151.19;;;11.41;100.00
8653;BME280;4364;52.426;9.424;2023-03-13T08:51:37;99142.88;;;11.37;100.00
8653;BME280;4364;52.426;9.424;2023-03-13T08:54:05;99133.28;;;11.40;100.00
8653;BME280;4364;52.426;9.424;2023-03-13T08:56:32;99123.34;;;11.35;100.00
8653;BME280;4364;52.426;9.424;2023-03-13T08:59:02;99126.06;;;11.35;100.00
8653;BME280;4364;52.426;9.424;2023-03-13T09:01:31;99131.34;;;11.40;100.00
8653;BME280;4364;52.426;9.424;2023-03-13T09:03:59;99117.91;;;11.53;100.00
8653;BME280;4364;52.426;9.424;2023-03-13T09:06:31;99127.19;;;11.60;100.00
8653;BME280;4364;52.426;9.424;2023-03-13T09:08:57;99124.28;;;11.65;100.00
8653;BME280;4364;52.426;9.424;2023-03-13T09:11:25;99119.50;;;11.71;100.00
8653;BME280;4364;52.426;9.424;2023-03-13T09:13:53;99115.34;;;11.65;100.00
8653;BME280;4364;52.426;9.424;2023-03-13T09:16:28;99124.13;;;11.71;100.00
8653;BME280;4364;52.426;9.424;2023-03-13T09:18:55;99121.38;;;11.79;99.64
8653;BME280;4364;52.426;9.424;2023-03-13T09:21:33;99148.28;;;11.81;99.28
8653;BME280;4364;52.426;9.424;2023-03-13T09:24:01;99113.22;;;11.79;99.67
8653;BME280;4364;52.426;9.424;2023-03-13T09:26:28;99117.72;;;11.75;100.00
8653;BME280;4364;52.426;9.424;2023-03-13T09:28:55;99118.34;;;11.81;99.54
8653;BME280;4364;52.426;9.424;2023-03-13T09:31:23;99110.16;;;11.81;99.71
8653;BME280;4364;52.426;9.424;2023-03-13T09:33:50;99107.63;;;11.84;99.72
8653;BME280;4364;52.426;9.424;2023-03-13T09:36:18;99114.19;;;11.83;99.90
8653;BME280;4364;52.426;9.424;2023-03-13T09:38:52;99114.81;;;11.80;100.00
8653;BME280;4364;52.426;9.424;2023-03-13T09:44:19;99114.53;;;11.73;100.00
8653;BME280;4364;52.426;9.424;2023-03-13T09:49:39;99101.53;;;11.79;100.00
8653;BME280;4364;52.426;9.424;2023-03-13T09:52:24;99102.16;;;11.76;100.00
8653;BME280;4364;52.426;9.424;2023-03-13T09:55:16;99105.22;;;11.92;99.36
8653;BME280;4364;52.426;9.424;2023-03-13T09:57:52;99101.03;;;11.94;99.07
8653;BME280;4364;52.426;9.424;2023-03-13T10:00:23;99104.72;;;11.98;99.11
8653;BME280;4364;52.426;9.424;2023-03-13T10:03:10;99105.66;;;12.02;99.06
8653;BME280;4364;52.426;9.424;2023-03-13T10:05:46;99109.53;;;12.01;99.28
8653;BME280;4364;52.426;9.424;2023-03-13T10:08:21;99101.34;;;12.01;99.87
8653;BME280;4364;52.426;9.424;2023-03-13T10:10:56;99104.41;;;12.00;100.00
8653;BME280;4364;52.426;9.424;2023-03-13T10:13:41;99107.41;;;12.07;100.00
8653;BME280;4364;52.426;9.424;2023-03-13T10:16:15;99108.25;;;11.99;100.00
8653;BME280;4364;52.426;9.424;2023-03-13T10:18:47;99106.81;;;12.01;100.00
8653;BME280;4364;52.426;9.424;2023-03-13T10:21:22;99095.53;;;12.12;100.00
8653;BME280;4364;52.426;9.424;2023-03-13T10:26:50;99094.34;;;12.30;100.00
8653;BME280;4364;52.426;9.424;2023-03-13T10:29:21;99086.97;;;12.31;99.99
8653;BME280;4364;52.426;9.424;2023-03-13T10:32:11;99068.78;;;12.44;99.77
8653;BME280;4364;52.426;9.424;2023-03-13T10:34:57;99071.91;;;12.63;99.05
8653;BME280;4364;52.426;9.424;2023-03-13T10:37:28;99072.44;;;12.77;97.61
8653;BME280;4364;52.426;9.424;2023-03-13T10:42:44;99055.34;;;13.31;94.31
8653;BME280;4364;52.426;9.424;2023-03-13T10:45:16;99070.91;;;13.31;93.00
8653;BME280;4364;52.426;9.424;2023-03-13T10:47:43;99057.88;;;13.37;91.95
8653;BME280;4364;52.426;9.424;2023-03-13T10:50:17;99068.81;;;13.70;92.32
8653;BME280;4364;52.426;9.424;2023-03-13T10:52:47;99050.38;;;13.79;90.37
8653;BME280;4364;52.426;9.424;2023-03-13T10:55:18;99060.63;;;13.82;88.00
8653;BME280;4364;52.426;9.424;2023-03-13T10:58:00;99068.47;;;13.71;88.00
8653;BME280;4364;52.426;9.424;2023-03-13T11:00:33;99046.47;;;13.68;88.47
8653;BME280;4364;52.426;9.424;2023-03-13T11:03:04;99057.66;;;13.75;87.42
8653;BME280;4364;52.426;9.424;2023-03-13T11:13:35;99034.13;;;13.95;85.31
8653;BME280;4364;52.426;9.424;2023-03-13T11:16:21;99039.72;;;13.99;84.72
8653;BME280;4364;52.426;9.424;2023-03-13T11:19:04;99038.47;;;14.08;84.82
8653;BME280;4364;52.426;9.424;2023-03-13T11:21:41;99015.47;;;14.22;83.31
8653;BME280;4364;52.426;9.424;2023-03-13T11:24:21;99005.06;;;14.40;83.18
8653;BME280;4364;52.426;9.424;2023-03-13T11:27:02;99017.25;;;14.55;81.72
8653;BME280;4364;52.426;9.424;2023-03-13T11:29:54;99016.47;;;14.54;80.11
8653;BME280;4364;52.426;9.424;2023-03-13T11:32:28;99008.50;;;14.49;80.08
8653;BME280;4364;52.426;9.424;2023-03-13T11:35:03;98999.72;;;14.56;79.79
8653;BME280;4364;52.426;9.424;2023-03-13T11:37:35;99005.66;;;14.70;77.69
8653;BME280;4364;52.426;9.424;2023-03-13T11:40:28;98998.66;;;14.85;77.27
8653;BME280;4364;52.426;9.424;2023-03-13T11:43:30;98983.66;;;14.95;76.23
8653;BME280;4364;52.426;9.424;2023-03-13T11:52:08;98988.94;;;15.16;72.40
8653;BME280;4364;52.426;9.424;2023-03-13T11:54:54;98990.03;;;14.99;71.63
8653;BME280;4364;52.426;9.424;2023-03-13T11:57:27;99019.91;;;15.04;71.82
8653;BME280;4364;52.426;9.424;2023-03-13T12:05:16;98991.06;;;15.23;72.12
8653;BME280;4364;52.426;9.424;2023-03-13T12:08:04;98972.31;;;15.37;71.66
8653;BME280;4364;52.426;9.424;2023-03-13T12:10:51;98979.00;;;15.24;70.87
8653;BME280;4364;52.426;9.424;2023-03-13T12:13:58;98980.81;;;15.19;71.78
8653;BME280;4364;52.426;9.424;2023-03-13T12:16:45;98965.00;;;15.13;72.23
8653;BME280;4364;52.426;9.424;2023-03-13T12:19:18;98971.25;;;15.13;71.48
8653;BME280;4364;52.426;9.424;2023-03-13T12:21:52;98962.78;;;15.03;70.71
8653;BME280;4364;52.426;9.424;2023-03-13T12:24:28;98964.91;;;15.09;69.83
8653;BME280;4364;52.426;9.424;2023-03-13T12:27:00;98975.53;;;15.27;68.48
8653;BME280;4364;52.426;9.424;2023-03-13T12:29:48;98963.38;;;15.40;68.54
8653;BME280;4364;52.426;9.424;2023-03-13T12:32:24;98959.09;;;15.27;67.58
8653;BME280;4364;52.426;9.424;2023-03-13T12:35:14;98945.41;;;15.27;68.04
8653;BME280;4364;52.426;9.424;2023-03-13T12:45:31;98949.50;;;15.65;64.70
8653;BME280;4364;52.426;9.424;2023-03-13T12:48:19;98946.25;;;15.75;63.68
8653;BME280;4364;52.426;9.424;2023-03-13T12:51:22;98931.94;;;15.82;62.60
8653;BME280;4364;52.426;9.424;2023-03-13T12:59:15;98938.75;;;15.88;63.41
8653;BME280;4364;52.426;9.424;2023-03-13T13:01:47;98928.50;;;15.85;63.23
8653;BME280;4364;52.426;9.424;2023-03-13T13:04:22;98923.28;;;15.80;63.33
8653;BME280;4364;52.426;9.424;2023-03-13T13:07:04;98905.75;;;15.68;63.34
8653;BME280;4364;52.426;9.424;2023-03-13T13:09:36;98924.16;;;15.68;64.40
8653;BME280;4364;52.426;9.424;2023-03-13T13:20:27;98886.16;;;15.66;64.77
8653;BME280;4364;52.426;9.424;2023-03-13T13:22:56;98905.31;;;15.66;63.82
8653;BME280;4364;52.426;9.424;2023-03-13T13:27:49;98876.63;;;15.76;64.04
8653;BME280;4364;52.426;9.424;2023-03-13T13:32:47;98881.84;;;15.65;64.91
8653;BME280;4364;52.426;9.424;2023-03-13T13:37:45;98851.84;;;15.72;65.39
8653;BME280;4364;52.426;9.424;2023-03-13T13:43:03;98853.19;;;16.14;62.92
8653;BME280;4364;52.426;9.424;2023-03-13T13:45:37;98846.03;;;16.09;62.61
8653;BME280;4364;52.426;9.424;2023-03-13T13:48:24;98851.75;;;16.20;62.60
8653;BME280;4364;52.426;9.424;2023-03-13T13:56:29;98848.28;;;16.23;60.46
8653;BME280;4364;52.426;9.424;2023-03-13T14:01:48;98839.84;;;16.32;58.62
8653;BME280;4364;52.426;9.424;2023-03-13T14:04:21;98850.09;;;16.55;57.25
8653;BME280;4364;52.426;9.424;2023-03-13T14:06:50;98855.88;;;16.69;57.00
8653;BME280;4364;52.426;9.424;2023-03-13T14:09:36;98848.78;;;16.68;55.12
8653;BME280;4364;52.426;9.424;2023-03-13T14:12:36;98841.03;;;16.51;56.09
8653;BME280;4364;52.426;9.424;2023-03-13T14:15:16;98837.22;;;16.59;56.09
8653;BME280;4364;52.426;9.424;2023-03-13T14:17:52;98857.41;;;16.86;54.38
8653;BME280;4364;52.426;9.424;2023-03-13T14:22:54;98837.50;;;16.73;53.62
8653;BME280;4364;52.426;9.424;2023-03-13T14:25:23;98819.84;;;16.71;53.94
8653;BME280;4364;52.426;9.424;2023-03-13T14:27:50;98825.44;;;16.78;54.08
8653;BME280;4364;52.426;9.424;2023-03-13T14:30:19;98822.06;;;16.84;54.12
8653;BME280;4364;52.426;9.424;2023-03-13T14:32:46;98817.88;;;16.71;55.06
8653;BME280;4364;52.426;9.424;2023-03-13T14:35:17;98826.59;;;16.77;55.47
8653;BME280;4364;52.426;9.424;2023-03-13T14:37:46;98810.84;;;16.74;54.51
8653;BME280;4364;52.426;9.424;2023-03-13T14:40:26;98807.19;;;16.85;55.60
8653;BME280;4364;52.426;9.424;2023-03-13T14:42:55;98813.38;;;16.82;56.00
8653;BME280;4364;52.426;9.424;2023-03-13T14:45:31;98812.22;;;16.83;55.45
8653;BME280;4364;52.426;9.424;2023-03-13T14:48:01;98815.03;;;16.87;55.54
8653;BME280;4364;52.426;9.424;2023-03-13T14:50:28;98812.31;;;16.87;55.30
8653;BME280;4364;52.426;9.424;2023-03-13T14:53:02;98798.72;;;16.75;55.44
8653;BME280;4364;52.426;9.424;2023-03-13T14:55:33;98816.28;;;16.70;56.39
8653;BME280;4364;52.426;9.424;2023-03-13T14:58:04;98795.94;;;16.52;56.94
8653;BME280;4364;52.426;9.424;2023-03-13T15:00:39;98807.38;;;16.34;57.63
8653;BME280;4364;52.426;9.424;2023-03-13T15:05:44;98776.44;;;16.14;57.81
8653;BME280;4364;52.426;9.424;2023-03-13T15:08:23;98769.34;;;16.13;58.09
8653;BME280;4364;52.426;9.424;2023-03-13T15:10:50;98776.56;;;16.21;56.94
8653;BME280;4364;52.426;9.424;2023-03-13T15:13:42;98769.00;;;16.15;57.49
8653;BME280;4364;52.426;9.424;2023-03-13T15:16:19;98767.31;;;16.10;56.70
8653;BME280;4364;52.426;9.424;2023-03-13T15:18:49;98767.19;;;16.03;57.45
8653;BME280;4364;52.426;9.424;2023-03-13T15:21:20;98769.50;;;16.01;57.97